Time;durP1;ratioP1;P1;durP2;ratioP2;P2;SDS_P1;SDS_P2;PMS_P1;PMS_P2;Temp;Humidity;BMP_temperature;BMP_pressure;BME280_temperature;BME280_humidity;BME280_pressure;Samples;Min_cycle;Max_cycle;Signal;HPM_P1;HPM_P2
2021/12/08 00:02:12;;;;;;;0.00;0.00;;;;;17.90;101133.00;;;;5116558;27;20043;-74
2021/12/08 00:04:43;;;;;;;0.00;0.00;;;;;17.90;101138.00;;;;5115992;27;20072;-74
2021/12/08 00:07:12;;;;;;;0.03;0.03;;;;;17.80;101126.00;;;;5120333;27;20039;-74
2021/12/08 00:15:01;;;;;;;0.00;0.00;;;;;17.80;101130.00;;;;5130061;27;20047;-74
2021/12/08 00:17:30;;;;;;;0.00;0.00;;;;;17.90;101126.00;;;;5128230;27;20051;-74
2021/12/08 00:20:02;;;;;;;0.15;0.10;;;;;17.80;101126.00;;;;5129273;27;20043;-74
2021/12/08 00:22:32;;;;;;;0.03;0.03;;;;;17.80;101145.00;;;;5129490;27;20099;-74
2021/12/08 00:25:02;;;;;;;0.00;0.00;;;;;17.70;101143.00;;;;5127634;27;20047;-73
2021/12/08 00:27:31;;;;;;;0.00;0.00;;;;;17.70;101135.00;;;;5125528;27;20148;-75
2021/12/08 00:30:01;;;;;;;0.00;0.00;;;;;17.60;101150.00;;;;5112712;27;20074;-73
2021/12/08 00:32:32;;;;;;;0.00;0.00;;;;;17.60;101128.00;;;;5088842;28;20400;-74
2021/12/08 00:35:02;;;;;;;0.00;0.00;;;;;17.60;101142.00;;;;5123814;27;20577;-73
2021/12/08 00:37:32;;;;;;;1.17;0.17;;;;;17.60;101125.00;;;;5128878;27;20058;-73
2021/12/08 00:40:07;;;;;;;0.00;0.00;;;;;17.60;101133.00;;;;5128883;27;20043;-73
2021/12/08 00:42:37;;;;;;;0.00;0.00;;;;;17.60;101152.00;;;;5128115;27;20444;-74
2021/12/08 00:45:08;;;;;;;0.00;0.00;;;;;17.60;101163.00;;;;5127491;27;20063;-74
2021/12/08 00:47:37;;;;;;;;;;;;;17.60;101153.00;;;;5127529;27;20042;-72
2021/12/08 00:50:10;;;;;;;0.80;0.10;;;;;17.50;101144.00;;;;5128843;27;20484;-73
2021/12/08 00:52:41;;;;;;;0.00;0.00;;;;;17.40;101144.00;;;;5128940;27;20095;-75
2021/12/08 00:55:12;;;;;;;0.30;0.30;;;;;17.60;101149.00;;;;5129055;27;20505;-73
2021/12/08 00:57:42;;;;;;;0.00;0.00;;;;;17.50;101159.00;;;;5128513;27;20043;-74
2021/12/08 01:00:37;;;;;;;0.00;0.00;;;;;17.30;101160.00;;;;5128217;27;20475;-73
2021/12/08 01:03:09;;;;;;;0.00;0.00;;;;;17.40;101145.00;;;;5128830;27;20042;-72
2021/12/08 01:05:45;;;;;;;0.00;0.00;;;;;17.40;101124.00;;;;5128439;27;20055;-74
2021/12/08 01:08:17;;;;;;;0.03;0.03;;;;;17.30;101125.00;;;;5128756;27;21048;-74
2021/12/08 01:10:49;;;;;;;0.00;0.00;;;;;17.30;101137.00;;;;5127321;27;20051;-71
2021/12/08 01:13:20;;;;;;;0.00;0.00;;;;;17.40;101140.00;;;;5128909;27;20477;-74
2021/12/08 01:15:50;;;;;;;;;;;;;17.40;101149.00;;;;5128172;27;20091;-73
2021/12/08 01:18:25;;;;;;;0.00;0.00;;;;;17.50;101144.00;;;;5128867;27;19947;-73
2021/12/08 01:20:56;;;;;;;0.00;0.00;;;;;17.50;101122.00;;;;5128886;27;20114;-73
2021/12/08 01:23:27;;;;;;;0.10;0.10;;;;;17.40;101115.00;;;;5128319;27;20039;-71
2021/12/08 01:25:57;;;;;;;0.00;0.00;;;;;17.40;101115.00;;;;5127740;27;20051;-74
2021/12/08 01:28:27;;;;;;;0.28;0.22;;;;;17.40;101120.00;;;;5128297;27;20043;-74
2021/12/08 01:31:00;;;;;;;0.00;0.00;;;;;17.40;101094.00;;;;5128142;27;20043;-73
2021/12/08 01:33:32;;;;;;;0.25;0.10;;;;;17.50;101117.00;;;;5128415;27;20039;-73
2021/12/08 01:36:05;;;;;;;0.00;0.00;;;;;17.40;101102.00;;;;5127437;27;20107;-73
2021/12/08 01:38:36;;;;;;;0.10;0.10;;;;;17.30;101099.00;;;;5128434;27;20501;-72
2021/12/08 01:41:05;;;;;;;0.00;0.00;;;;;17.30;101100.00;;;;5127650;27;20039;-72
2021/12/08 01:46:34;;;;;;;1.20;0.00;;;;;17.30;101116.00;;;;5073102;27;20060;-73
2021/12/08 01:49:05;;;;;;;0.00;0.00;;;;;17.30;101094.00;;;;5127632;27;20118;-73
2021/12/08 01:51:34;;;;;;;0.00;0.00;;;;;17.20;101100.00;;;;5126609;27;20078;-73
2021/12/08 01:54:07;;;;;;;0.00;0.00;;;;;17.30;101113.00;;;;5127526;27;20035;-74
2021/12/08 01:56:37;;;;;;;0.25;0.10;;;;;17.20;101103.00;;;;5127226;27;20039;-74
2021/12/08 01:59:09;;;;;;;0.00;0.00;;;;;17.30;101079.00;;;;5128120;27;20482;-74
2021/12/08 02:01:42;;;;;;;0.80;0.20;;;;;17.30;101106.00;;;;5127743;27;20031;-73
2021/12/08 02:04:13;;;;;;;0.20;0.20;;;;;17.20;101096.00;;;;5128507;27;20039;-75
2021/12/08 02:06:45;;;;;;;0.00;0.00;;;;;17.20;101079.00;;;;5127755;27;20111;-74
2021/12/08 02:09:17;;;;;;;1.85;0.15;;;;;17.30;101107.00;;;;5127323;27;20211;-73
2021/12/08 02:11:47;;;;;;;0.00;0.00;;;;;17.20;101091.00;;;;5127662;27;20046;-73
2021/12/08 02:14:16;;;;;;;0.80;0.70;;;;;17.20;101113.00;;;;5127533;27;20039;-73
2021/12/08 02:16:51;;;;;;;0.00;0.00;;;;;17.20;101120.00;;;;5127652;27;20497;-73
2021/12/08 02:19:23;;;;;;;0.00;0.00;;;;;17.20;101109.00;;;;5125602;27;20042;-73
2021/12/08 02:21:52;;;;;;;1.35;0.65;;;;;17.20;101101.00;;;;5126839;27;20517;-74
2021/12/08 02:24:23;;;;;;;0.20;0.20;;;;;17.10;101083.00;;;;5127151;27;20047;-74
2021/12/08 02:26:52;;;;;;;0.00;0.00;;;;;17.10;101106.00;;;;5127691;27;20624;-74
2021/12/08 02:29:53;;;;;;;0.52;0.30;;;;;17.20;101100.00;;;;5126828;27;20051;-74
2021/12/08 02:48:56;;;;;;;0.00;0.00;;;;;17.00;101077.00;;;;5126878;27;20057;-72
2021/12/08 02:51:26;;;;;;;0.00;0.00;;;;;17.00;101085.00;;;;5127662;28;20079;-73
2021/12/08 02:53:59;;;;;;;0.00;0.00;;;;;17.00;101090.00;;;;5127600;27;20035;-73
2021/12/08 02:56:30;;;;;;;0.25;0.25;;;;;17.00;101088.00;;;;5125245;28;20051;-74
2021/12/08 02:59:00;;;;;;;;;;;;;16.90;101092.00;;;;5129036;27;20088;-73
2021/12/08 03:01:30;;;;;;;0.10;0.10;;;;;17.00;101099.00;;;;5127044;28;19964;-73
2021/12/08 03:04:01;;;;;;;0.13;0.08;;;;;17.10;101093.00;;;;5127041;28;20042;-73
2021/12/08 03:06:31;;;;;;;0.00;0.00;;;;;16.90;101067.00;;;;5127133;27;20039;-73
2021/12/08 03:09:02;;;;;;;0.00;0.00;;;;;16.90;101088.00;;;;5127074;27;20394;-73
2021/12/08 03:11:33;;;;;;;0.00;0.00;;;;;16.90;101079.00;;;;5126870;27;20794;-73
2021/12/08 03:14:12;;;;;;;0.00;0.00;;;;;16.90;101068.00;;;;5127372;27;20070;-73
2021/12/08 03:16:47;;;;;;;0.00;0.00;;;;;16.90;101066.00;;;;5128107;28;20477;-73
2021/12/08 03:19:21;;;;;;;0.05;0.00;;;;;16.90;101081.00;;;;5127056;27;20470;-75
2021/12/08 03:21:51;;;;;;;1.35;0.45;;;;;16.90;101080.00;;;;5127203;27;20043;-73
2021/12/08 03:24:29;;;;;;;0.00;0.00;;;;;16.90;101071.00;;;;5127464;27;20049;-72
2021/12/08 03:32:15;;;;;;;0.00;0.00;;;;;16.90;101063.00;;;;5126248;28;20436;-72
2021/12/08 03:34:51;;;;;;;0.10;0.10;;;;;16.90;101070.00;;;;5125992;27;20035;-74
2021/12/08 03:37:33;;;;;;;220.30;33.50;;;;;17.00;101060.00;;;;5127435;27;20423;-71
2021/12/08 03:40:10;;;;;;;0.00;0.00;;;;;17.10;101063.00;;;;5130065;27;20047;-74
2021/12/08 03:42:40;;;;;;;0.00;0.00;;;;;17.10;101036.00;;;;5130287;27;20094;-74
2021/12/08 03:45:16;;;;;;;1.15;1.15;;;;;17.00;101027.00;;;;5130126;27;20578;-74
2021/12/08 03:47:48;;;;;;;0.00;0.00;;;;;16.90;101033.00;;;;5130516;27;20088;-74
2021/12/08 03:50:18;;;;;;;0.00;0.00;;;;;16.90;101048.00;;;;5130501;27;20142;-73
2021/12/08 03:52:48;;;;;;;0.10;0.10;;;;;16.90;101042.00;;;;5129708;27;20043;-73
2021/12/08 03:55:17;;;;;;;0.00;0.00;;;;;16.90;101042.00;;;;5128623;27;20829;-74
2021/12/08 03:57:47;;;;;;;2.92;1.10;;;;;16.90;101031.00;;;;5129686;27;20039;-74
2021/12/08 04:00:20;;;;;;;0.00;0.00;;;;;16.70;101026.00;;;;5130070;27;20054;-74
2021/12/08 04:02:50;;;;;;;0.00;0.00;;;;;16.80;101027.00;;;;5130179;27;20060;-73
2021/12/08 04:05:31;;;;;;;0.00;0.00;;;;;16.80;101015.00;;;;5129923;27;20053;-73
2021/12/08 04:08:04;;;;;;;0.00;0.00;;;;;16.80;101011.00;;;;5129638;27;20047;-72
2021/12/08 04:10:34;;;;;;;0.00;0.00;;;;;16.80;101015.00;;;;5129656;27;20027;-73
2021/12/08 04:13:03;;;;;;;1.08;0.10;;;;;16.80;101016.00;;;;5130158;27;20031;-73
2021/12/08 04:15:33;;;;;;;0.00;0.00;;;;;16.70;101006.00;;;;5129936;27;20517;-74
2021/12/08 04:18:03;;;;;;;0.00;0.00;;;;;16.70;101019.00;;;;5129331;27;20087;-73
2021/12/08 04:20:37;;;;;;;0.00;0.00;;;;;16.70;100996.00;;;;5129046;27;20043;-73
2021/12/08 04:23:09;;;;;;;0.00;0.00;;;;;16.70;101012.00;;;;5129651;27;20040;-74
2021/12/08 04:25:41;;;;;;;0.00;0.00;;;;;16.70;101003.00;;;;5111731;27;20058;-74
2021/12/08 04:28:18;;;;;;;0.00;0.00;;;;;16.60;101013.00;;;;5129367;27;20050;-73
2021/12/08 04:30:53;;;;;;;0.00;0.00;;;;;16.60;100998.00;;;;5129308;27;20422;-73
2021/12/08 04:33:23;;;;;;;0.00;0.00;;;;;16.60;101005.00;;;;5129285;27;20587;-73
2021/12/08 04:35:54;;;;;;;0.00;0.00;;;;;16.70;100991.00;;;;5129519;27;20039;-74
2021/12/08 04:38:32;;;;;;;0.00;0.00;;;;;16.80;100985.00;;;;5129553;27;20050;-73
2021/12/08 04:41:09;;;;;;;0.00;0.00;;;;;16.70;101003.00;;;;5129315;27;20062;-73
2021/12/08 04:44:03;;;;;;;0.00;0.00;;;;;16.70;100977.00;;;;5129084;27;20546;-74
2021/12/08 04:50:08;;;;;;;0.00;0.00;;;;;16.80;100986.00;;;;5128384;27;20043;-73
2021/12/08 05:01:17;;;;;;;0.00;0.00;;;;;16.50;101001.00;;;;5128678;27;20050;-73
2021/12/08 05:09:14;;;;;;;0.08;0.08;;;;;16.30;100976.00;;;;5128369;27;20126;-73
2021/12/08 05:11:50;;;;;;;0.00;0.00;;;;;16.30;100982.00;;;;5129226;27;20039;-74
2021/12/08 05:14:27;;;;;;;0.00;0.00;;;;;16.30;100987.00;;;;5126860;27;20035;-73
2021/12/08 05:17:04;;;;;;;0.75;0.43;;;;;16.20;100988.00;;;;5127106;27;20043;-73
2021/12/08 05:19:35;;;;;;;0.00;0.00;;;;;16.20;100985.00;;;;5129050;27;20042;-73
2021/12/08 05:22:12;;;;;;;0.00;0.00;;;;;16.20;100969.00;;;;5128436;27;20043;-73
2021/12/08 05:24:46;;;;;;;0.00;0.00;;;;;16.20;100980.00;;;;5128555;27;20035;-73
2021/12/08 05:27:25;;;;;;;0.90;0.30;;;;;16.10;100977.00;;;;5129526;27;20043;-73
2021/12/08 05:30:00;;;;;;;0.30;0.30;;;;;16.30;100979.00;;;;5131931;27;20100;-73
2021/12/08 05:32:32;;;;;;;0.00;0.00;;;;;16.10;100981.00;;;;5133690;27;20125;-76
2021/12/08 05:35:03;;;;;;;0.00;0.00;;;;;15.90;100973.00;;;;5132037;27;20520;-74
2021/12/08 05:37:34;;;;;;;0.00;0.00;;;;;15.70;100984.00;;;;5132956;27;20051;-74
2021/12/08 05:40:09;;;;;;;0.00;0.00;;;;;15.50;100975.00;;;;5132662;27;20054;-74
2021/12/08 05:42:39;;;;;;;0.00;0.00;;;;;15.40;100978.00;;;;5128641;27;20039;-76
2021/12/08 05:45:13;;;;;;;0.00;0.00;;;;;15.30;100954.00;;;;5128127;27;20051;-75
2021/12/08 05:47:45;;;;;;;0.00;0.00;;;;;15.20;100975.00;;;;5128786;27;20047;-75
2021/12/08 05:50:21;;;;;;;0.00;0.00;;;;;15.10;100967.00;;;;5128053;27;20046;-75
2021/12/08 05:52:53;;;;;;;0.00;0.00;;;;;15.00;100966.00;;;;5128632;27;20043;-73
2021/12/08 05:55:23;;;;;;;0.00;0.00;;;;;14.90;100961.00;;;;5126582;27;20074;-75
2021/12/08 05:57:52;;;;;;;0.00;0.00;;;;;14.80;100980.00;;;;5128362;27;20403;-74
2021/12/08 06:00:29;;;;;;;0.52;0.30;;;;;14.80;100958.00;;;;5128269;27;20498;-75
2021/12/08 06:02:59;;;;;;;0.00;0.00;;;;;14.80;100958.00;;;;5128502;27;20092;-72
2021/12/08 06:05:29;;;;;;;0.00;0.00;;;;;14.70;100967.00;;;;5135787;27;20039;-74
2021/12/08 06:07:59;;;;;;;0.00;0.00;;;;;14.60;100968.00;;;;5142953;27;20039;-72
2021/12/08 06:10:35;;;;;;;0.00;0.00;;;;;14.50;100951.00;;;;5128074;27;20100;-74
2021/12/08 06:13:08;;;;;;;0.00;0.00;;;;;14.50;100963.00;;;;5127473;27;20042;-73
2021/12/08 06:15:38;;;;;;;0.00;0.00;;;;;14.50;100932.00;;;;5133882;27;20110;-74
2021/12/08 06:18:08;;;;;;;0.00;0.00;;;;;14.40;100972.00;;;;5153684;27;20019;-74
2021/12/08 06:20:38;;;;;;;0.00;0.00;;;;;14.30;100963.00;;;;5153681;27;20031;-75
2021/12/08 06:23:09;;;;;;;0.00;0.00;;;;;14.20;100953.00;;;;5154441;27;20023;-75
2021/12/08 06:25:39;;;;;;;;;;;;;14.20;100971.00;;;;5155230;27;20059;-74
2021/12/08 06:28:08;;;;;;;0.00;0.00;;;;;14.20;100948.00;;;;5154174;27;19915;-74
2021/12/08 06:30:40;;;;;;;0.00;0.00;;;;;14.10;100970.00;;;;5149888;27;20039;-74
2021/12/08 06:33:10;;;;;;;0.00;0.00;;;;;14.10;100950.00;;;;5125510;27;20126;-74
2021/12/08 06:35:45;;;;;;;0.00;0.00;;;;;14.10;100958.00;;;;5127570;27;20127;-75
2021/12/08 06:38:18;;;;;;;0.00;0.00;;;;;14.10;100943.00;;;;5125967;27;20046;-75
2021/12/08 06:40:55;;;;;;;0.00;0.00;;;;;14.00;100962.00;;;;5127749;27;20124;-74
2021/12/08 06:43:28;;;;;;;0.00;0.00;;;;;14.00;100960.00;;;;5127576;27;20043;-74
2021/12/08 06:46:00;;;;;;;0.00;0.00;;;;;14.00;100946.00;;;;5126991;27;20051;-75
2021/12/08 06:48:38;;;;;;;0.00;0.00;;;;;14.00;100968.00;;;;5127139;27;20107;-75
2021/12/08 06:51:17;;;;;;;0.00;0.00;;;;;13.90;100967.00;;;;5126807;27;20126;-75
2021/12/08 06:53:50;;;;;;;0.00;0.00;;;;;13.90;100957.00;;;;5127581;28;20047;-76
2021/12/08 06:56:26;;;;;;;0.00;0.00;;;;;13.90;100964.00;;;;5126611;28;20046;-76
2021/12/08 06:59:00;;;;;;;0.32;0.08;;;;;13.80;100964.00;;;;5126847;28;20043;-75
2021/12/08 07:01:58;;;;;;;0.00;0.00;;;;;13.90;100949.00;;;;5126240;28;20519;-74
2021/12/08 07:04:52;;;;;;;0.00;0.00;;;;;13.90;100965.00;;;;5127093;28;20551;-76
2021/12/08 07:07:29;;;;;;;0.00;0.00;;;;;13.90;100971.00;;;;5127237;27;20126;-74
2021/12/08 07:10:22;;;;;;;0.00;0.00;;;;;14.00;100977.00;;;;5127109;28;20074;-75
2021/12/08 07:12:59;;;;;;;0.00;0.00;;;;;13.90;100968.00;;;;5129939;27;20043;-74
2021/12/08 07:15:36;;;;;;;0.00;0.00;;;;;13.80;100989.00;;;;5131319;27;20039;-75
2021/12/08 07:18:17;;;;;;;2.80;0.32;;;;;13.80;100977.00;;;;5129272;27;20050;-74
2021/12/08 07:20:59;;;;;;;0.00;0.00;;;;;13.80;100967.00;;;;5130333;27;20115;-76
2021/12/08 07:23:38;;;;;;;0.00;0.00;;;;;13.90;100973.00;;;;5130857;27;20043;-74
2021/12/08 07:26:21;;;;;;;0.00;0.00;;;;;13.80;100975.00;;;;5131100;27;20628;-72
2021/12/08 07:29:02;;;;;;;0.00;0.00;;;;;13.80;100975.00;;;;5134935;27;20053;-75
2021/12/08 07:31:46;;;;;;;0.00;0.00;;;;;13.80;100978.00;;;;5134351;27;20133;-73
2021/12/08 07:34:23;;;;;;;0.00;0.00;;;;;13.80;100992.00;;;;5134376;27;20519;-74
2021/12/08 07:37:01;;;;;;;1.55;0.65;;;;;13.90;100986.00;;;;5131641;27;20049;-75
2021/12/08 07:39:42;;;;;;;0.00;0.00;;;;;13.90;100992.00;;;;5130843;27;20829;-73
2021/12/08 07:42:38;;;;;;;0.03;0.03;;;;;13.90;100977.00;;;;5130807;27;20047;-75
2021/12/08 07:45:11;;;;;;;0.00;0.00;;;;;13.90;100996.00;;;;5129124;27;20566;-75
2021/12/08 07:47:42;;;;;;;0.22;0.10;;;;;13.90;100989.00;;;;5130242;27;20047;-74
2021/12/08 07:50:25;;;;;;;0.00;0.00;;;;;13.80;100999.00;;;;5129949;27;20050;-73
2021/12/08 07:52:55;;;;;;;0.00;0.00;;;;;13.80;100994.00;;;;5129692;27;20050;-74
2021/12/08 07:55:28;;;;;;;0.65;0.52;;;;;13.80;101004.00;;;;5129990;27;20395;-75
2021/12/08 07:58:00;;;;;;;0.00;0.00;;;;;13.80;100990.00;;;;5130245;27;20143;-73
2021/12/08 08:00:36;;;;;;;0.17;0.08;;;;;13.80;101010.00;;;;5128778;27;20043;-76
2021/12/08 08:03:07;;;;;;;0.17;0.10;;;;;13.70;101003.00;;;;5130441;27;20035;-75
2021/12/08 08:05:38;;;;;;;1.45;0.52;;;;;13.70;101001.00;;;;5130776;27;20142;-75
2021/12/08 08:08:11;;;;;;;0.10;0.10;;;;;13.80;100989.00;;;;5130308;27;20039;-74
2021/12/08 08:10:55;;;;;;;0.00;0.00;;;;;13.80;101012.00;;;;5128540;27;20284;-73
2021/12/08 08:13:28;;;;;;;0.00;0.00;;;;;13.70;100997.00;;;;5130057;27;20047;-73
2021/12/08 08:16:05;;;;;;;0.00;0.00;;;;;13.60;100989.00;;;;5129183;27;20052;-76
2021/12/08 08:18:39;;;;;;;2.50;0.30;;;;;13.70;101017.00;;;;5129650;27;20092;-77
2021/12/08 08:21:19;;;;;;;0.00;0.00;;;;;13.80;101012.00;;;;5130122;27;20039;-75
2021/12/08 08:23:50;;;;;;;0.00;0.00;;;;;13.80;100999.00;;;;5129075;27;20078;-73
2021/12/08 08:26:19;;;;;;;0.00;0.00;;;;;13.70;101020.00;;;;5129178;27;20043;-75
2021/12/08 08:28:52;;;;;;;0.00;0.00;;;;;13.70;101021.00;;;;5130189;27;20039;-73
2021/12/08 08:31:31;;;;;;;0.00;0.00;;;;;13.90;101009.00;;;;5129056;27;20100;-73
2021/12/08 08:34:02;;;;;;;0.00;0.00;;;;;13.90;101031.00;;;;5129421;27;20093;-75
2021/12/08 08:36:36;;;;;;;0.00;0.00;;;;;13.80;101034.00;;;;5129425;27;20039;-73
2021/12/08 08:39:20;;;;;;;0.00;0.00;;;;;13.80;101042.00;;;;5129523;27;20050;-75
2021/12/08 08:41:54;;;;;;;0.10;0.10;;;;;13.90;101029.00;;;;5128742;27;20101;-73
2021/12/08 08:44:48;;;;;;;1.08;0.52;;;;;14.00;101037.00;;;;5129451;27;20124;-72
2021/12/08 08:47:36;;;;;;;0.08;0.08;;;;;14.00;101028.00;;;;5129156;27;20050;-73
2021/12/08 08:50:10;;;;;;;0.00;0.00;;;;;14.00;101026.00;;;;5129279;27;20405;-73
2021/12/08 08:52:49;;;;;;;0.00;0.00;;;;;14.00;101032.00;;;;5129633;27;20514;-74
2021/12/08 08:55:51;;;;;;;0.15;0.15;;;;;14.00;101028.00;;;;5128026;27;20039;-73
2021/12/08 08:58:23;;;;;;;0.00;0.00;;;;;14.00;101025.00;;;;5129034;27;20487;-72
2021/12/08 09:00:59;;;;;;;0.03;0.03;;;;;14.10;101048.00;;;;5129952;27;20074;-76
2021/12/08 09:03:34;;;;;;;0.10;0.08;;;;;14.10;101040.00;;;;5126691;27;20139;-73
2021/12/08 09:06:08;;;;;;;0.00;0.00;;;;;14.10;101035.00;;;;5125215;27;20125;-76
2021/12/08 09:08:39;;;;;;;0.00;0.00;;;;;14.20;101055.00;;;;5127771;27;20143;-75
2021/12/08 09:11:12;;;;;;;0.00;0.00;;;;;14.20;101071.00;;;;5129175;27;20135;-73
2021/12/08 09:14:03;;;;;;;0.00;0.00;;;;;14.20;101065.00;;;;5128613;27;20183;-75
2021/12/08 09:16:46;;;;;;;0.00;0.00;;;;;14.20;101066.00;;;;5129108;27;20042;-75
2021/12/08 09:19:22;;;;;;;0.00;0.00;;;;;14.30;101068.00;;;;5129043;27;20524;-74
2021/12/08 09:22:20;;;;;;;0.00;0.00;;;;;14.40;101064.00;;;;5128832;27;20418;-74
2021/12/08 09:25:18;;;;;;;0.00;0.00;;;;;14.60;101055.00;;;;5129359;27;20043;-73
2021/12/08 09:27:51;;;;;;;0.00;0.00;;;;;14.90;101069.00;;;;5126917;27;20092;-75
2021/12/08 09:30:32;;;;;;;0.00;0.00;;;;;15.20;101051.00;;;;5128496;27;20043;-75
2021/12/08 09:33:09;;;;;;;0.00;0.00;;;;;15.50;101066.00;;;;5127108;27;20054;-76
2021/12/08 09:35:54;;;;;;;0.00;0.00;;;;;15.70;101074.00;;;;5127658;27;20044;-73
2021/12/08 09:38:49;;;;;;;0.00;0.00;;;;;16.00;101088.00;;;;5126578;27;20053;-76
2021/12/08 09:41:47;;;;;;;0.00;0.00;;;;;16.20;101078.00;;;;5114141;27;20051;-74
2021/12/08 09:44:21;;;;;;;0.00;0.00;;;;;16.50;101092.00;;;;5122072;27;20057;-75
2021/12/08 09:46:52;;;;;;;0.43;0.43;;;;;16.80;101092.00;;;;5126251;27;20505;-74
2021/12/08 09:49:24;;;;;;;0.10;0.10;;;;;17.00;101087.00;;;;5128496;27;20066;-75
2021/12/08 09:51:57;;;;;;;0.00;0.00;;;;;17.20;101088.00;;;;5117564;27;20513;-74
2021/12/08 09:54:27;;;;;;;0.00;0.00;;;;;17.20;101095.00;;;;5113610;27;20043;-75
2021/12/08 09:56:59;;;;;;;0.10;0.10;;;;;17.30;101090.00;;;;5118256;27;20043;-76
2021/12/08 09:59:32;;;;;;;0.00;0.00;;;;;17.40;101094.00;;;;5116988;27;20051;-74
2021/12/08 10:02:06;;;;;;;0.00;0.00;;;;;17.40;101090.00;;;;5122390;27;20063;-75
2021/12/08 10:04:36;;;;;;;0.00;0.00;;;;;17.40;101089.00;;;;5115449;27;20084;-76
2021/12/08 10:07:06;;;;;;;0.00;0.00;;;;;17.50;101110.00;;;;5112539;27;20105;-75
2021/12/08 10:09:36;;;;;;;0.20;0.15;;;;;17.70;101090.00;;;;5108681;28;20043;-73
2021/12/08 10:12:06;;;;;;;0.00;0.00;;;;;18.00;101106.00;;;;5107098;28;20085;-73
2021/12/08 10:14:36;;;;;;;0.00;0.00;;;;;18.10;101114.00;;;;5124663;27;20485;-76
2021/12/08 10:17:05;;;;;;;0.00;0.00;;;;;18.20;101113.00;;;;5121430;27;20036;-74
2021/12/08 10:19:34;;;;;;;0.00;0.00;;;;;18.30;101119.00;;;;5107073;28;20389;-76
2021/12/08 10:22:04;;;;;;;0.00;0.00;;;;;18.40;101128.00;;;;5109929;27;20072;-76
2021/12/08 10:24:33;;;;;;;0.00;0.00;;;;;18.40;101118.00;;;;5123292;27;20154;-74
2021/12/08 10:27:08;;;;;;;4.38;0.25;;;;;18.50;101121.00;;;;5116775;27;20035;-74
2021/12/08 10:29:38;;;;;;;0.00;0.00;;;;;18.50;101123.00;;;;5106117;28;20063;-73
2021/12/08 10:32:14;;;;;;;1.17;1.08;;;;;18.70;101123.00;;;;5106054;28;20116;-75
2021/12/08 10:34:53;;;;;;;0.10;0.10;;;;;18.90;101115.00;;;;5107416;28;20085;-75
2021/12/08 10:37:23;;;;;;;0.00;0.00;;;;;19.20;101126.00;;;;5107343;28;20047;-74
2021/12/08 10:39:59;;;;;;;0.00;0.00;;;;;19.50;101089.00;;;;5106598;28;20491;-73
2021/12/08 10:42:31;;;;;;;0.00;0.00;;;;;19.90;101119.00;;;;5107529;28;20044;-73
2021/12/08 10:47:38;;;;;;;0.00;0.00;;;;;19.90;101126.00;;;;5107599;28;20067;-76
2021/12/08 10:55:39;;;;;;;0.00;0.00;;;;;23.30;100962.00;;;;5107004;28;20031;-73
2021/12/08 10:58:22;;;;;;;0.00;0.00;;;;;28.30;100900.00;;;;5107621;28;20077;-76
2021/12/08 11:00:54;;;;;;;0.10;0.10;;;;;29.20;100914.00;;;;5106870;28;20502;-73
2021/12/08 11:03:30;;;;;;;0.10;0.10;;;;;29.90;100902.00;;;;5107003;28;20438;-75
2021/12/08 11:06:03;;;;;;;0.03;0.03;;;;;30.20;100914.00;;;;5106523;28;20044;-73
2021/12/08 11:08:39;;;;;;;0.10;0.10;;;;;30.80;100923.00;;;;5106905;28;20131;-75
2021/12/08 11:11:20;;;;;;;0.10;0.10;;;;;30.70;100920.00;;;;5106664;28;20618;-76
2021/12/08 11:14:02;;;;;;;0.00;0.00;;;;;31.20;100915.00;;;;5105100;28;20097;-76
2021/12/08 11:16:37;;;;;;;3.92;0.65;;;;;30.30;100911.00;;;;5106573;28;20107;-75
2021/12/08 11:19:14;;;;;;;0.10;0.10;;;;;30.70;100901.00;;;;5105272;28;20059;-74
2021/12/08 11:21:47;;;;;;;0.20;0.15;;;;;30.80;100906.00;;;;5107084;28;20074;-75
2021/12/08 11:24:33;;;;;;;0.00;0.00;;;;;30.50;100891.00;;;;5106557;28;20036;-76
2021/12/08 11:27:06;;;;;;;0.17;0.17;;;;;30.90;100897.00;;;;5106853;28;20741;-76
2021/12/08 11:29:38;;;;;;;0.00;0.00;;;;;31.70;100890.00;;;;5104510;28;20198;-75
2021/12/08 11:32:12;;;;;;;0.00;0.00;;;;;30.60;100888.00;;;;5106935;28;20053;-75
2021/12/08 11:34:46;;;;;;;0.00;0.00;;;;;29.80;100884.00;;;;5106316;28;20050;-74
2021/12/08 11:37:24;;;;;;;1.20;0.43;;;;;29.50;100899.00;;;;5106337;28;20035;-74
2021/12/08 11:39:58;;;;;;;0.00;0.00;;;;;29.30;100893.00;;;;5106290;28;20040;-75
2021/12/08 11:42:31;;;;;;;0.00;0.00;;;;;28.80;100896.00;;;;5106331;28;20071;-75
2021/12/08 11:45:13;;;;;;;3.53;0.30;;;;;28.30;100920.00;;;;5105962;28;20092;-75
2021/12/08 11:47:44;;;;;;;0.63;0.22;;;;;27.50;100935.00;;;;5106392;28;20168;-73
2021/12/08 11:50:23;;;;;;;0.35;0.35;;;;;27.00;100950.00;;;;5105668;28;20039;-75
2021/12/08 11:52:54;;;;;;;0.60;0.32;;;;;26.80;100994.00;;;;5105810;28;20040;-74
2021/12/08 11:55:25;;;;;;;0.68;0.68;;;;;26.70;101083.00;;;;5105546;28;20568;-73
2021/12/08 11:57:58;;;;;;;0.08;0.08;;;;;25.30;100979.00;;;;5105966;28;20134;-75
2021/12/08 12:00:32;;;;;;;0.13;0.13;;;;;24.50;101094.00;;;;5109619;28;20051;-75
2021/12/08 12:03:04;;;;;;;0.03;0.00;;;;;24.10;101006.00;;;;5108919;28;20039;-73
2021/12/08 12:05:38;;;;;;;0.20;0.10;;;;;24.90;101031.00;;;;5109686;28;20050;-75
2021/12/08 12:08:11;;;;;;;0.68;0.68;;;;;25.20;101037.00;;;;5109439;28;20040;-74
2021/12/08 12:10:45;;;;;;;0.10;0.10;;;;;25.30;101034.00;;;;5109932;28;20047;-75
2021/12/08 12:13:15;;;;;;;0.05;0.05;;;;;25.80;101047.00;;;;5109858;28;20521;-74
2021/12/08 12:15:47;;;;;;;0.25;0.25;;;;;25.20;101049.00;;;;5109081;28;20035;-75
2021/12/08 12:18:19;;;;;;;0.10;0.05;;;;;24.80;101048.00;;;;5109277;28;20040;-74
2021/12/08 12:20:52;;;;;;;0.52;0.32;;;;;24.50;101041.00;;;;5108524;28;20036;-74
2021/12/08 12:23:49;;;;;;;5.07;0.17;;;;;24.90;101020.00;;;;5109277;28;20040;-74
2021/12/08 12:26:43;;;;;;;0.00;0.00;;;;;25.30;101044.00;;;;5107602;28;20039;-73
2021/12/08 12:29:56;;;;;;;0.00;0.00;;;;;24.50;101060.00;;;;5108451;28;20584;-74
2021/12/08 12:32:36;;;;;;;0.88;0.25;;;;;24.70;101032.00;;;;5108785;28;20040;-74
2021/12/08 12:35:21;;;;;;;0.10;0.10;;;;;24.60;101022.00;;;;5108022;28;20131;-73
2021/12/08 12:38:07;;;;;;;0.00;0.00;;;;;24.50;101035.00;;;;5108457;28;20048;-74
2021/12/08 12:40:40;;;;;;;0.00;0.00;;;;;24.60;101041.00;;;;5108604;28;20048;-73
2021/12/08 12:43:12;;;;;;;0.00;0.00;;;;;24.60;101041.00;;;;5109274;28;20126;-76
2021/12/08 12:45:43;;;;;;;0.93;0.63;;;;;24.30;101048.00;;;;5108838;28;20043;-74
2021/12/08 12:48:21;;;;;;;0.00;0.00;;;;;24.10;101050.00;;;;5107973;27;20104;-73
2021/12/08 12:51:06;;;;;;;1.13;0.25;;;;;23.60;101056.00;;;;5107200;28;20048;-72
2021/12/08 12:53:56;;;;;;;0.00;0.00;;;;;23.70;101061.00;;;;5108625;28;20501;-75
2021/12/08 12:56:35;;;;;;;0.75;0.68;;;;;23.50;101074.00;;;;5108595;28;20039;-75
2021/12/08 12:59:15;;;;;;;0.00;0.00;;;;;23.30;101067.00;;;;5107064;28;20102;-75
2021/12/08 13:01:47;;;;;;;1.15;1.02;;;;;23.10;101057.00;;;;5107089;28;20502;-75
2021/12/08 13:04:20;;;;;;;0.00;0.00;;;;;23.40;101045.00;;;;5108437;28;20036;-73
2021/12/08 13:07:07;;;;;;;2.92;1.08;;;;;23.50;101064.00;;;;5108603;28;20050;-73
2021/12/08 13:09:46;;;;;;;3.20;1.55;;;;;23.40;101051.00;;;;5107512;28;20085;-73
2021/12/08 13:12:48;;;;;;;0.60;0.35;;;;;23.40;101069.00;;;;5108523;28;20043;-74
2021/12/08 13:15:21;;;;;;;0.20;0.10;;;;;23.10;101047.00;;;;5108087;28;20047;-73
2021/12/08 13:18:05;;;;;;;0.00;0.00;;;;;23.10;101070.00;;;;5107803;28;20123;-74
2021/12/08 13:20:42;;;;;;;1.35;0.40;;;;;22.90;101062.00;;;;5106490;28;20736;-74
2021/12/08 13:23:14;;;;;;;1.10;0.55;;;;;22.80;101063.00;;;;5107620;28;20039;-73
2021/12/08 13:28:32;;;;;;;0.00;0.00;;;;;23.60;101029.00;;;;5108017;28;20118;-75
2021/12/08 13:31:18;;;;;;;2.05;0.10;;;;;24.40;101027.00;;;;5108019;28;20063;-75
2021/12/08 13:33:51;;;;;;;0.00;0.00;;;;;24.40;101066.00;;;;5107806;28;20043;-74
2021/12/08 13:36:21;;;;;;;0.00;0.00;;;;;24.30;101058.00;;;;5107609;28;20051;-73
2021/12/08 13:39:00;;;;;;;0.00;0.00;;;;;24.10;101063.00;;;;5107244;28;20046;-74
2021/12/08 13:41:32;;;;;;;0.00;0.00;;;;;24.00;101064.00;;;;5107704;28;20685;-74
2021/12/08 13:44:32;;;;;;;0.00;0.00;;;;;23.80;101072.00;;;;5107508;28;20106;-74
2021/12/08 13:47:05;;;;;;;0.00;0.00;;;;;23.70;101077.00;;;;5107173;28;20066;-75